FYGA4: White River At Fayetteville, AR

                                SHEF ID:       FYGA4     White River near Fayetteville, A
STATION TYPE: Stream Gauge

PRECIP STAGE RIV-FLOW WTR-TEMP DIS-OXY PH CONDUCT BAT-LOAD
in ft cfs F mg/l su umho/cm volt
Ccp-Rev Ccp-Rev Ccp-Rev Ccp-Rev Ccp-Rev Ccp-Rev Ccp-Rev Ccp-Rev
(America/Chicago)
05/06 00:00 0.00 4.07 966 65.79 8.74 7.51 89 12.65
05/06 01:00 0.00 4.04 943 65.61 8.74 7.52 90 12.57
05/06 02:00 0.00 3.99 906 65.35 8.73 7.51 90 12.57
05/06 03:00 0.00 3.95 878 65.17 8.77 7.47 90 12.57
05/06 04:00 0.00 3.92 856 64.99 8.78 7.50 91 12.49
05/06 05:00 0.00 3.88 828 64.78 8.81 7.50 91 12.49
05/06 06:00 0.00 3.84 801 64.58 8.83 7.51 87 12.41
05/06 07:00 0.00 3.81 781 64.29 8.85 7.51 91 12.41
05/06 08:00 0.00 3.79 768 64.08 8.92 7.51 90 12.49
05/06 09:00 0.00 3.75 742 63.99 8.97 7.52 90 13.53
05/06 10:00 0.00 3.73 729 63.99 9.01 7.53 91 13.29
05/06 11:00 0.00 3.69 703 64.15 9.05 7.54 91 13.37
05/06 12:00 0.00 3.69 703 64.26 9.07 7.54 90 13.29
05/06 13:00 0.00 3.66 685 64.44 9.10 7.57 91 13.21
05/06 14:00 0.00 3.63 666 64.85 9.13 7.58 91 13.84
05/06 15:00 0.00 3.63 666 64.69 9.10 7.58 91 13.84
05/06 16:00 0.00 3.61 654 64.44 9.13 7.57 91 13.13
05/06 17:00 0.00 3.59 642 64.36 9.09 7.57 92 13.05
05/06 18:00 0.00 3.59 642 64.20 9.08 7.57 91 13.05
05/06 19:00 0.00 3.57 630 64.11 9.05 7.57 92 12.97
05/06 20:00 0.00 3.55 619 63.90 9.00 7.53 91 12.89
05/06 21:00 0.00 3.53 607 63.79 8.96 7.51 91 12.81
05/06 22:00 0.00 3.52 602 63.59 8.98 7.53 91 12.73
05/06 23:00 0.00 3.52 602 63.27 8.99 7.49 91 12.73
Data processed at Thu 07May2026 04:10 GMT

NOTICE: If you are parsing this page

Please convert to using our Data API. Starting early 2026 we will be migrating to: https://water.usace.army.mil with modern pages rendered in JavaScript. When this migration completes you will no longer be able to scrape this page! CWMSDataAPI (CDA)

Timeseries IDs (TSIDs)

TSIDs used from left to right in the data table
FAYE.Precip-Inc.Total.1Hour.1Hour.Ccp-Rev
FAYE.Stage.Inst.1Hour.0.Ccp-Rev
FAYE.Flow.Inst.1Hour.0.Ccp-Rev
FAYE.Temp-Water.Inst.1Hour.0.Ccp-Rev
FAYE.Conc-DO.Inst.1Hour.0.Ccp-Rev
FAYE.pH.Inst.1Hour.0.Ccp-Rev
FAYE.Cond-Water.Inst.1Hour.0.Ccp-Rev
FAYE.Volt-Battery Load.Inst.1Hour.0.Ccp-Rev

                            

All information presented herein is the property of the government of the United States of America and may be revised or deleted at any time without prior notice. Dissemination of this information without the expressed written consent of the Public Affairs Office, Tulsa District U.S. Army Corps of Engineers is strictly prohibited. These data are gathered electronically and, as presented, have NOT undergone any form of quality control. These data are NOT guaranteed to be valid or correct.